sensor_id;sensor_type;location;lat;lon;timestamp;P1;durP1;ratioP1;P2;durP2;ratioP2
8353;SDS011;4656;48.090;11.498;2023-09-18T00:01:43;6.72;;;4.70;;
8353;SDS011;4656;48.090;11.498;2023-09-18T00:03:45;5.57;;;4.50;;
8353;SDS011;4656;48.090;11.498;2023-09-18T00:05:48;4.82;;;4.28;;
8353;SDS011;4656;48.090;11.498;2023-09-18T00:07:49;6.25;;;4.43;;
8353;SDS011;4656;48.090;11.498;2023-09-18T00:09:52;5.72;;;4.30;;
8353;SDS011;4656;48.090;11.498;2023-09-18T00:11:54;6.97;;;4.65;;
8353;SDS011;4656;48.090;11.498;2023-09-18T00:13:55;5.78;;;3.95;;
8353;SDS011;4656;48.090;11.498;2023-09-18T00:15:57;5.57;;;4.17;;
8353;SDS011;4656;48.090;11.498;2023-09-18T00:18:00;5.72;;;3.85;;
8353;SDS011;4656;48.090;11.498;2023-09-18T00:20:01;4.97;;;3.70;;
8353;SDS011;4656;48.090;11.498;2023-09-18T00:22:05;4.65;;;3.60;;
8353;SDS011;4656;48.090;11.498;2023-09-18T00:24:08;5.00;;;3.60;;
8353;SDS011;4656;48.090;11.498;2023-09-18T00:26:13;4.68;;;3.25;;
8353;SDS011;4656;48.090;11.498;2023-09-18T00:28:15;9.50;;;3.42;;
8353;SDS011;4656;48.090;11.498;2023-09-18T00:30:17;3.70;;;3.17;;
8353;SDS011;4656;48.090;11.498;2023-09-18T00:32:19;4.47;;;3.25;;
8353;SDS011;4656;48.090;11.498;2023-09-18T00:34:21;4.05;;;3.28;;
8353;SDS011;4656;48.090;11.498;2023-09-18T00:36:24;4.20;;;2.75;;
8353;SDS011;4656;48.090;11.498;2023-09-18T00:38:26;4.00;;;3.35;;
8353;SDS011;4656;48.090;11.498;2023-09-18T00:40:28;5.70;;;3.53;;
8353;SDS011;4656;48.090;11.498;2023-09-18T00:42:31;6.45;;;3.10;;
8353;SDS011;4656;48.090;11.498;2023-09-18T00:44:36;4.13;;;2.85;;
8353;SDS011;4656;48.090;11.498;2023-09-18T00:46:38;3.63;;;3.00;;
8353;SDS011;4656;48.090;11.498;2023-09-18T00:48:40;4.00;;;3.20;;
8353;SDS011;4656;48.090;11.498;2023-09-18T00:50:42;4.90;;;3.10;;
8353;SDS011;4656;48.090;11.498;2023-09-18T00:52:45;4.78;;;3.47;;
8353;SDS011;4656;48.090;11.498;2023-09-18T00:54:47;4.47;;;3.43;;
8353;SDS011;4656;48.090;11.498;2023-09-18T00:56:49;5.60;;;3.28;;
8353;SDS011;4656;48.090;11.498;2023-09-18T00:58:55;4.55;;;3.38;;
8353;SDS011;4656;48.090;11.498;2023-09-18T01:00:57;4.78;;;3.03;;
8353;SDS011;4656;48.090;11.498;2023-09-18T01:03:00;3.88;;;3.20;;
8353;SDS011;4656;48.090;11.498;2023-09-18T01:05:03;5.03;;;3.63;;
8353;SDS011;4656;48.090;11.498;2023-09-18T01:07:06;4.18;;;3.08;;
8353;SDS011;4656;48.090;11.498;2023-09-18T01:09:08;5.82;;;3.42;;
8353;SDS011;4656;48.090;11.498;2023-09-18T01:11:14;5.93;;;3.17;;
8353;SDS011;4656;48.090;11.498;2023-09-18T01:13:20;5.40;;;2.95;;
8353;SDS011;4656;48.090;11.498;2023-09-18T01:15:26;5.93;;;3.05;;
8353;SDS011;4656;48.090;11.498;2023-09-18T01:17:29;4.90;;;3.10;;
8353;SDS011;4656;48.090;11.498;2023-09-18T01:19:35;4.07;;;3.03;;
8353;SDS011;4656;48.090;11.498;2023-09-18T01:21:37;4.55;;;3.38;;
8353;SDS011;4656;48.090;11.498;2023-09-18T01:23:40;5.28;;;3.20;;
8353;SDS011;4656;48.090;11.498;2023-09-18T01:25:42;3.20;;;2.90;;
8353;SDS011;4656;48.090;11.498;2023-09-18T01:27:44;6.18;;;3.33;;
8353;SDS011;4656;48.090;11.498;2023-09-18T01:29:46;4.03;;;3.25;;
8353;SDS011;4656;48.090;11.498;2023-09-18T01:31:49;4.65;;;3.03;;
8353;SDS011;4656;48.090;11.498;2023-09-18T01:33:52;4.70;;;3.05;;
8353;SDS011;4656;48.090;11.498;2023-09-18T01:35:54;4.25;;;3.22;;
8353;SDS011;4656;48.090;11.498;2023-09-18T01:37:56;5.30;;;3.53;;
8353;SDS011;4656;48.090;11.498;2023-09-18T01:40:00;4.35;;;3.47;;
8353;SDS011;4656;48.090;11.498;2023-09-18T01:42:06;7.00;;;3.30;;
8353;SDS011;4656;48.090;11.498;2023-09-18T01:44:09;4.53;;;3.50;;
8353;SDS011;4656;48.090;11.498;2023-09-18T01:46:11;5.57;;;3.30;;
8353;SDS011;4656;48.090;11.498;2023-09-18T01:48:14;3.90;;;3.33;;
8353;SDS011;4656;48.090;11.498;2023-09-18T01:50:15;7.80;;;4.07;;
8353;SDS011;4656;48.090;11.498;2023-09-18T01:52:17;8.00;;;3.78;;
8353;SDS011;4656;48.090;11.498;2023-09-18T01:54:19;6.55;;;3.60;;
8353;SDS011;4656;48.090;11.498;2023-09-18T01:56:23;4.63;;;3.50;;
8353;SDS011;4656;48.090;11.498;2023-09-18T01:58:25;4.60;;;3.50;;
8353;SDS011;4656;48.090;11.498;2023-09-18T02:00:27;4.00;;;3.60;;
8353;SDS011;4656;48.090;11.498;2023-09-18T02:02:29;5.03;;;3.55;;
8353;SDS011;4656;48.090;11.498;2023-09-18T02:04:30;4.97;;;3.87;;
8353;SDS011;4656;48.090;11.498;2023-09-18T02:06:32;4.47;;;3.72;;
8353;SDS011;4656;48.090;11.498;2023-09-18T02:08:35;5.88;;;3.97;;
8353;SDS011;4656;48.090;11.498;2023-09-18T02:10:37;4.57;;;3.90;;
8353;SDS011;4656;48.090;11.498;2023-09-18T02:12:40;5.73;;;4.03;;
8353;SDS011;4656;48.090;11.498;2023-09-18T02:14:43;4.97;;;3.67;;
8353;SDS011;4656;48.090;11.498;2023-09-18T02:16:45;5.10;;;3.47;;
8353;SDS011;4656;48.090;11.498;2023-09-18T02:18:47;5.00;;;3.72;;
8353;SDS011;4656;48.090;11.498;2023-09-18T02:20:48;5.90;;;3.83;;
8353;SDS011;4656;48.090;11.498;2023-09-18T02:22:50;4.45;;;3.50;;
8353;SDS011;4656;48.090;11.498;2023-09-18T02:24:52;6.43;;;3.88;;
8353;SDS011;4656;48.090;11.498;2023-09-18T02:26:54;5.93;;;3.53;;
8353;SDS011;4656;48.090;11.498;2023-09-18T02:28:58;4.53;;;3.80;;
8353;SDS011;4656;48.090;11.498;2023-09-18T02:31:00;5.47;;;3.78;;
8353;SDS011;4656;48.090;11.498;2023-09-18T02:33:03;6.68;;;3.90;;
8353;SDS011;4656;48.090;11.498;2023-09-18T02:35:05;5.28;;;3.70;;
8353;SDS011;4656;48.090;11.498;2023-09-18T02:37:08;5.70;;;3.80;;
8353;SDS011;4656;48.090;11.498;2023-09-18T02:39:10;4.88;;;3.72;;
8353;SDS011;4656;48.090;11.498;2023-09-18T02:41:12;4.53;;;3.80;;
8353;SDS011;4656;48.090;11.498;2023-09-18T02:43:14;6.53;;;4.03;;
8353;SDS011;4656;48.090;11.498;2023-09-18T02:45:18;5.13;;;4.00;;
8353;SDS011;4656;48.090;11.498;2023-09-18T02:47:20;4.07;;;3.67;;
8353;SDS011;4656;48.090;11.498;2023-09-18T02:49:22;5.47;;;3.80;;
8353;SDS011;4656;48.090;11.498;2023-09-18T02:51:24;5.00;;;4.05;;
8353;SDS011;4656;48.090;11.498;2023-09-18T02:53:26;5.03;;;4.28;;
8353;SDS011;4656;48.090;11.498;2023-09-18T02:55:29;4.95;;;4.00;;
8353;SDS011;4656;48.090;11.498;2023-09-18T02:57:37;6.05;;;3.88;;
8353;SDS011;4656;48.090;11.498;2023-09-18T02:59:38;5.53;;;3.80;;
8353;SDS011;4656;48.090;11.498;2023-09-18T03:01:41;3.60;;;3.30;;
8353;SDS011;4656;48.090;11.498;2023-09-18T03:03:43;6.63;;;3.77;;
8353;SDS011;4656;48.090;11.498;2023-09-18T03:05:45;5.00;;;3.42;;
8353;SDS011;4656;48.090;11.498;2023-09-18T03:07:48;4.90;;;3.60;;
8353;SDS011;4656;48.090;11.498;2023-09-18T03:09:50;5.13;;;3.20;;
8353;SDS011;4656;48.090;11.498;2023-09-18T03:11:53;4.93;;;3.20;;
8353;SDS011;4656;48.090;11.498;2023-09-18T03:13:55;4.25;;;3.50;;
8353;SDS011;4656;48.090;11.498;2023-09-18T03:15:57;6.57;;;3.80;;
8353;SDS011;4656;48.090;11.498;2023-09-18T03:18:00;5.20;;;3.85;;
8353;SDS011;4656;48.090;11.498;2023-09-18T03:20:02;5.10;;;3.58;;
8353;SDS011;4656;48.090;11.498;2023-09-18T03:22:05;7.28;;;3.83;;
8353;SDS011;4656;48.090;11.498;2023-09-18T03:24:07;6.60;;;3.60;;
8353;SDS011;4656;48.090;11.498;2023-09-18T03:26:10;4.65;;;3.78;;
8353;SDS011;4656;48.090;11.498;2023-09-18T03:28:12;4.93;;;3.22;;
8353;SDS011;4656;48.090;11.498;2023-09-18T03:30:13;4.95;;;3.25;;
8353;SDS011;4656;48.090;11.498;2023-09-18T03:32:16;4.55;;;3.38;;
8353;SDS011;4656;48.090;11.498;2023-09-18T03:34:19;4.75;;;3.50;;
8353;SDS011;4656;48.090;11.498;2023-09-18T03:36:21;4.45;;;3.35;;
8353;SDS011;4656;48.090;11.498;2023-09-18T03:38:24;4.38;;;3.60;;
8353;SDS011;4656;48.090;11.498;2023-09-18T03:40:26;5.05;;;3.70;;
8353;SDS011;4656;48.090;11.498;2023-09-18T03:42:28;4.17;;;3.70;;
8353;SDS011;4656;48.090;11.498;2023-09-18T03:44:30;4.15;;;3.75;;
8353;SDS011;4656;48.090;11.498;2023-09-18T03:46:33;6.18;;;3.95;;
8353;SDS011;4656;48.090;11.498;2023-09-18T03:48:35;4.37;;;3.93;;
8353;SDS011;4656;48.090;11.498;2023-09-18T03:50:39;6.97;;;3.72;;
8353;SDS011;4656;48.090;11.498;2023-09-18T03:52:41;5.13;;;3.80;;
8353;SDS011;4656;48.090;11.498;2023-09-18T03:54:42;5.32;;;3.65;;
8353;SDS011;4656;48.090;11.498;2023-09-18T03:56:45;6.00;;;3.72;;
8353;SDS011;4656;48.090;11.498;2023-09-18T03:58:47;5.38;;;4.22;;
8353;SDS011;4656;48.090;11.498;2023-09-18T04:00:49;5.37;;;3.77;;
8353;SDS011;4656;48.090;11.498;2023-09-18T04:02:52;6.38;;;4.15;;
8353;SDS011;4656;48.090;11.498;2023-09-18T04:04:54;4.37;;;3.77;;
8353;SDS011;4656;48.090;11.498;2023-09-18T04:06:57;5.68;;;4.10;;
8353;SDS011;4656;48.090;11.498;2023-09-18T04:08:59;5.00;;;4.00;;
8353;SDS011;4656;48.090;11.498;2023-09-18T04:11:02;6.43;;;4.57;;
8353;SDS011;4656;48.090;11.498;2023-09-18T04:13:04;8.30;;;4.75;;
8353;SDS011;4656;48.090;11.498;2023-09-18T04:15:06;5.68;;;4.30;;
8353;SDS011;4656;48.090;11.498;2023-09-18T04:17:09;6.10;;;4.10;;
8353;SDS011;4656;48.090;11.498;2023-09-18T04:19:11;6.00;;;3.90;;
8353;SDS011;4656;48.090;11.498;2023-09-18T04:21:13;6.05;;;4.30;;
8353;SDS011;4656;48.090;11.498;2023-09-18T04:23:21;6.47;;;4.20;;
8353;SDS011;4656;48.090;11.498;2023-09-18T04:25:23;6.97;;;4.32;;
8353;SDS011;4656;48.090;11.498;2023-09-18T04:27:26;5.35;;;3.90;;
8353;SDS011;4656;48.090;11.498;2023-09-18T04:29:28;7.50;;;4.35;;
8353;SDS011;4656;48.090;11.498;2023-09-18T04:31:30;6.55;;;4.13;;
8353;SDS011;4656;48.090;11.498;2023-09-18T04:33:32;6.80;;;4.07;;
8353;SDS011;4656;48.090;11.498;2023-09-18T04:35:34;7.45;;;4.53;;
8353;SDS011;4656;48.090;11.498;2023-09-18T04:37:37;6.32;;;4.10;;
8353;SDS011;4656;48.090;11.498;2023-09-18T04:39:41;7.03;;;4.32;;
8353;SDS011;4656;48.090;11.498;2023-09-18T04:41:43;6.63;;;4.53;;
8353;SDS011;4656;48.090;11.498;2023-09-18T04:43:45;6.50;;;5.00;;
8353;SDS011;4656;48.090;11.498;2023-09-18T04:45:47;7.68;;;4.60;;
8353;SDS011;4656;48.090;11.498;2023-09-18T04:47:48;7.00;;;4.10;;
8353;SDS011;4656;48.090;11.498;2023-09-18T04:49:50;7.50;;;4.50;;
8353;SDS011;4656;48.090;11.498;2023-09-18T04:51:52;7.72;;;4.43;;
8353;SDS011;4656;48.090;11.498;2023-09-18T04:53:55;6.78;;;4.65;;
8353;SDS011;4656;48.090;11.498;2023-09-18T04:55:58;5.68;;;4.72;;
8353;SDS011;4656;48.090;11.498;2023-09-18T04:58:00;8.25;;;4.65;;
8353;SDS011;4656;48.090;11.498;2023-09-18T05:00:05;6.18;;;5.00;;
8353;SDS011;4656;48.090;11.498;2023-09-18T05:02:09;6.22;;;4.70;;
8353;SDS011;4656;48.090;11.498;2023-09-18T05:04:11;9.60;;;5.03;;
8353;SDS011;4656;48.090;11.498;2023-09-18T05:06:14;6.53;;;4.63;;
8353;SDS011;4656;48.090;11.498;2023-09-18T05:08:17;6.75;;;4.53;;
8353;SDS011;4656;48.090;11.498;2023-09-18T05:10:19;7.43;;;4.60;;
8353;SDS011;4656;48.090;11.498;2023-09-18T05:12:23;6.78;;;4.65;;
8353;SDS011;4656;48.090;11.498;2023-09-18T05:14:25;5.47;;;4.30;;
8353;SDS011;4656;48.090;11.498;2023-09-18T05:16:26;8.15;;;4.53;;
8353;SDS011;4656;48.090;11.498;2023-09-18T05:18:29;6.57;;;4.07;;
8353;SDS011;4656;48.090;11.498;2023-09-18T05:20:31;4.80;;;4.30;;
8353;SDS011;4656;48.090;11.498;2023-09-18T05:22:34;6.22;;;4.30;;
8353;SDS011;4656;48.090;11.498;2023-09-18T05:24:37;6.53;;;4.15;;
8353;SDS011;4656;48.090;11.498;2023-09-18T05:26:39;8.30;;;5.13;;
8353;SDS011;4656;48.090;11.498;2023-09-18T05:28:41;6.10;;;4.47;;
8353;SDS011;4656;48.090;11.498;2023-09-18T05:30:43;7.53;;;4.65;;
8353;SDS011;4656;48.090;11.498;2023-09-18T05:32:45;5.75;;;4.05;;
8353;SDS011;4656;48.090;11.498;2023-09-18T05:34:48;5.78;;;4.00;;
8353;SDS011;4656;48.090;11.498;2023-09-18T05:36:50;5.07;;;4.00;;
8353;SDS011;4656;48.090;11.498;2023-09-18T05:38:52;7.10;;;4.10;;
8353;SDS011;4656;48.090;11.498;2023-09-18T05:40:54;4.78;;;3.80;;
8353;SDS011;4656;48.090;11.498;2023-09-18T05:42:57;6.70;;;4.10;;
8353;SDS011;4656;48.090;11.498;2023-09-18T05:45:00;4.15;;;3.55;;
8353;SDS011;4656;48.090;11.498;2023-09-18T05:47:01;5.72;;;3.55;;
8353;SDS011;4656;48.090;11.498;2023-09-18T05:49:04;4.55;;;3.40;;
8353;SDS011;4656;48.090;11.498;2023-09-18T05:51:06;5.38;;;3.50;;
8353;SDS011;4656;48.090;11.498;2023-09-18T05:53:08;6.10;;;3.70;;
8353;SDS011;4656;48.090;11.498;2023-09-18T05:55:11;7.20;;;3.17;;
8353;SDS011;4656;48.090;11.498;2023-09-18T05:57:13;6.15;;;3.45;;
8353;SDS011;4656;48.090;11.498;2023-09-18T05:59:16;5.30;;;3.25;;
8353;SDS011;4656;48.090;11.498;2023-09-18T06:01:20;5.17;;;3.13;;
8353;SDS011;4656;48.090;11.498;2023-09-18T06:03:22;5.47;;;3.40;;
8353;SDS011;4656;48.090;11.498;2023-09-18T06:05:25;4.32;;;3.30;;
8353;SDS011;4656;48.090;11.498;2023-09-18T06:07:26;5.00;;;3.00;;
8353;SDS011;4656;48.090;11.498;2023-09-18T06:09:28;7.20;;;3.15;;
8353;SDS011;4656;48.090;11.498;2023-09-18T06:11:30;6.60;;;2.95;;
8353;SDS011;4656;48.090;11.498;2023-09-18T06:13:32;8.05;;;3.28;;
8353;SDS011;4656;48.090;11.498;2023-09-18T06:15:36;4.38;;;2.80;;
8353;SDS011;4656;48.090;11.498;2023-09-18T06:17:40;8.13;;;3.03;;
8353;SDS011;4656;48.090;11.498;2023-09-18T06:19:41;4.47;;;2.70;;
8353;SDS011;4656;48.090;11.498;2023-09-18T06:21:43;4.15;;;2.80;;
8353;SDS011;4656;48.090;11.498;2023-09-18T06:23:46;7.22;;;2.95;;
8353;SDS011;4656;48.090;11.498;2023-09-18T06:25:48;6.45;;;2.90;;
8353;SDS011;4656;48.090;11.498;2023-09-18T06:27:55;4.90;;;2.70;;
8353;SDS011;4656;48.090;11.498;2023-09-18T06:29:57;4.35;;;2.80;;
8353;SDS011;4656;48.090;11.498;2023-09-18T06:31:59;5.93;;;2.75;;
8353;SDS011;4656;48.090;11.498;2023-09-18T06:34:03;4.57;;;3.00;;
8353;SDS011;4656;48.090;11.498;2023-09-18T06:36:06;6.63;;;2.80;;
8353;SDS011;4656;48.090;11.498;2023-09-18T06:38:08;6.57;;;3.40;;
8353;SDS011;4656;48.090;11.498;2023-09-18T06:40:12;7.68;;;2.42;;
8353;SDS011;4656;48.090;11.498;2023-09-18T06:42:14;9.10;;;2.60;;
8353;SDS011;4656;48.090;11.498;2023-09-18T06:44:16;4.53;;;2.50;;
8353;SDS011;4656;48.090;11.498;2023-09-18T06:46:19;5.15;;;2.72;;
8353;SDS011;4656;48.090;11.498;2023-09-18T06:48:21;4.28;;;2.70;;
8353;SDS011;4656;48.090;11.498;2023-09-18T06:50:24;8.63;;;2.70;;
8353;SDS011;4656;48.090;11.498;2023-09-18T06:52:28;3.72;;;2.72;;
8353;SDS011;4656;48.090;11.498;2023-09-18T06:54:30;4.90;;;2.85;;
8353;SDS011;4656;48.090;11.498;2023-09-18T06:56:32;9.20;;;3.30;;
8353;SDS011;4656;48.090;11.498;2023-09-18T06:58:34;7.18;;;2.80;;
8353;SDS011;4656;48.090;11.498;2023-09-18T07:00:36;3.30;;;2.40;;
8353;SDS011;4656;48.090;11.498;2023-09-18T07:02:39;4.53;;;2.80;;
8353;SDS011;4656;48.090;11.498;2023-09-18T07:04:41;7.05;;;2.92;;
8353;SDS011;4656;48.090;11.498;2023-09-18T07:06:47;5.72;;;2.75;;
8353;SDS011;4656;48.090;11.498;2023-09-18T07:08:49;6.88;;;2.90;;
8353;SDS011;4656;48.090;11.498;2023-09-18T07:10:51;6.03;;;2.72;;
8353;SDS011;4656;48.090;11.498;2023-09-18T07:12:53;7.38;;;2.80;;
8353;SDS011;4656;48.090;11.498;2023-09-18T07:14:55;4.35;;;2.83;;
8353;SDS011;4656;48.090;11.498;2023-09-18T07:16:57;5.13;;;2.80;;
8353;SDS011;4656;48.090;11.498;2023-09-18T07:19:01;4.75;;;2.25;;
8353;SDS011;4656;48.090;11.498;2023-09-18T07:21:04;8.70;;;2.90;;
8353;SDS011;4656;48.090;11.498;2023-09-18T07:23:08;7.68;;;3.03;;
8353;SDS011;4656;48.090;11.498;2023-09-18T07:25:10;7.07;;;2.67;;
8353;SDS011;4656;48.090;11.498;2023-09-18T07:27:12;4.97;;;2.50;;
8353;SDS011;4656;48.090;11.498;2023-09-18T07:29:14;6.63;;;2.78;;
8353;SDS011;4656;48.090;11.498;2023-09-18T07:31:16;8.07;;;2.67;;
8353;SDS011;4656;48.090;11.498;2023-09-18T07:33:18;6.80;;;2.90;;
8353;SDS011;4656;48.090;11.498;2023-09-18T07:35:20;5.63;;;2.30;;
8353;SDS011;4656;48.090;11.498;2023-09-18T07:37:23;8.70;;;2.72;;
8353;SDS011;4656;48.090;11.498;2023-09-18T07:39:25;8.20;;;3.03;;
8353;SDS011;4656;48.090;11.498;2023-09-18T07:41:27;6.50;;;2.45;;
8353;SDS011;4656;48.090;11.498;2023-09-18T07:43:28;8.48;;;2.88;;
8353;SDS011;4656;48.090;11.498;2023-09-18T07:45:30;6.15;;;2.70;;
8353;SDS011;4656;48.090;11.498;2023-09-18T07:47:32;5.40;;;2.60;;
8353;SDS011;4656;48.090;11.498;2023-09-18T07:49:35;7.78;;;2.72;;
8353;SDS011;4656;48.090;11.498;2023-09-18T07:51:37;6.17;;;2.40;;
8353;SDS011;4656;48.090;11.498;2023-09-18T07:53:38;4.90;;;2.75;;
8353;SDS011;4656;48.090;11.498;2023-09-18T07:55:42;6.70;;;2.60;;
8353;SDS011;4656;48.090;11.498;2023-09-18T07:57:44;5.68;;;2.33;;
8353;SDS011;4656;48.090;11.498;2023-09-18T07:59:47;7.80;;;2.50;;
8353;SDS011;4656;48.090;11.498;2023-09-18T08:01:49;4.80;;;2.28;;
8353;SDS011;4656;48.090;11.498;2023-09-18T08:03:52;5.65;;;2.50;;
8353;SDS011;4656;48.090;11.498;2023-09-18T08:05:54;6.80;;;2.38;;
8353;SDS011;4656;48.090;11.498;2023-09-18T08:07:57;3.08;;;2.22;;
8353;SDS011;4656;48.090;11.498;2023-09-18T08:09:59;6.77;;;3.53;;
8353;SDS011;4656;48.090;11.498;2023-09-18T08:12:03;6.90;;;2.67;;
8353;SDS011;4656;48.090;11.498;2023-09-18T08:14:04;6.95;;;2.70;;
8353;SDS011;4656;48.090;11.498;2023-09-18T08:16:06;3.75;;;2.60;;
8353;SDS011;4656;48.090;11.498;2023-09-18T08:18:09;4.78;;;2.47;;
8353;SDS011;4656;48.090;11.498;2023-09-18T08:20:11;4.50;;;2.40;;
8353;SDS011;4656;48.090;11.498;2023-09-18T08:22:13;4.35;;;2.40;;
8353;SDS011;4656;48.090;11.498;2023-09-18T08:24:16;3.95;;;2.53;;
8353;SDS011;4656;48.090;11.498;2023-09-18T08:26:18;5.15;;;2.80;;
8353;SDS011;4656;48.090;11.498;2023-09-18T08:28:22;4.95;;;2.58;;
8353;SDS011;4656;48.090;11.498;2023-09-18T08:30:24;6.30;;;2.70;;
8353;SDS011;4656;48.090;11.498;2023-09-18T08:32:26;4.28;;;2.80;;
8353;SDS011;4656;48.090;11.498;2023-09-18T08:34:30;4.47;;;2.42;;
8353;SDS011;4656;48.090;11.498;2023-09-18T08:36:32;7.30;;;2.80;;
8353;SDS011;4656;48.090;11.498;2023-09-18T08:38:34;7.07;;;2.70;;
8353;SDS011;4656;48.090;11.498;2023-09-18T08:40:36;5.40;;;2.72;;
8353;SDS011;4656;48.090;11.498;2023-09-18T08:42:38;7.90;;;2.90;;
8353;SDS011;4656;48.090;11.498;2023-09-18T08:44:42;9.15;;;3.13;;
8353;SDS011;4656;48.090;11.498;2023-09-18T08:46:45;6.05;;;2.88;;
8353;SDS011;4656;48.090;11.498;2023-09-18T08:48:47;5.15;;;2.80;;
8353;SDS011;4656;48.090;11.498;2023-09-18T08:50:50;5.95;;;2.55;;
8353;SDS011;4656;48.090;11.498;2023-09-18T08:52:53;5.78;;;4.63;;
8353;SDS011;4656;48.090;11.498;2023-09-18T08:54:56;6.68;;;3.50;;
8353;SDS011;4656;48.090;11.498;2023-09-18T08:56:59;7.40;;;3.57;;
8353;SDS011;4656;48.090;11.498;2023-09-18T08:59:00;8.10;;;2.95;;
8353;SDS011;4656;48.090;11.498;2023-09-18T09:01:03;5.28;;;2.88;;
8353;SDS011;4656;48.090;11.498;2023-09-18T09:03:09;4.80;;;2.70;;
8353;SDS011;4656;48.090;11.498;2023-09-18T09:05:11;4.45;;;2.83;;
8353;SDS011;4656;48.090;11.498;2023-09-18T09:07:13;8.98;;;2.65;;
8353;SDS011;4656;48.090;11.498;2023-09-18T09:09:16;8.45;;;2.90;;
8353;SDS011;4656;48.090;11.498;2023-09-18T09:11:19;4.72;;;2.63;;
8353;SDS011;4656;48.090;11.498;2023-09-18T09:13:21;6.35;;;2.80;;
8353;SDS011;4656;48.090;11.498;2023-09-18T09:15:27;6.53;;;3.00;;
8353;SDS011;4656;48.090;11.498;2023-09-18T09:17:31;7.80;;;2.72;;
8353;SDS011;4656;48.090;11.498;2023-09-18T09:19:33;9.63;;;2.95;;
8353;SDS011;4656;48.090;11.498;2023-09-18T09:21:38;8.32;;;2.85;;
8353;SDS011;4656;48.090;11.498;2023-09-18T09:23:45;4.57;;;2.55;;
8353;SDS011;4656;48.090;11.498;2023-09-18T09:25:49;5.15;;;2.65;;
8353;SDS011;4656;48.090;11.498;2023-09-18T09:27:51;6.50;;;2.53;;
8353;SDS011;4656;48.090;11.498;2023-09-18T09:30:02;6.03;;;2.67;;
8353;SDS011;4656;48.090;11.498;2023-09-18T09:32:14;8.13;;;2.80;;
8353;SDS011;4656;48.090;11.498;2023-09-18T09:34:25;7.68;;;3.00;;
8353;SDS011;4656;48.090;11.498;2023-09-18T09:36:29;6.93;;;2.80;;
8353;SDS011;4656;48.090;11.498;2023-09-18T09:38:34;6.03;;;2.55;;
8353;SDS011;4656;48.090;11.498;2023-09-18T09:40:35;6.70;;;2.55;;
8353;SDS011;4656;48.090;11.498;2023-09-18T09:42:40;5.22;;;2.70;;
8353;SDS011;4656;48.090;11.498;2023-09-18T09:44:41;8.10;;;2.72;;
8353;SDS011;4656;48.090;11.498;2023-09-18T09:46:46;5.50;;;2.88;;
8353;SDS011;4656;48.090;11.498;2023-09-18T09:48:58;8.80;;;2.50;;
8353;SDS011;4656;48.090;11.498;2023-09-18T09:51:02;6.72;;;2.55;;
8353;SDS011;4656;48.090;11.498;2023-09-18T09:53:04;7.38;;;2.83;;
8353;SDS011;4656;48.090;11.498;2023-09-18T09:55:11;6.47;;;2.85;;
8353;SDS011;4656;48.090;11.498;2023-09-18T09:57:19;7.53;;;2.60;;
8353;SDS011;4656;48.090;11.498;2023-09-18T09:59:21;6.60;;;2.53;;
8353;SDS011;4656;48.090;11.498;2023-09-18T10:01:24;7.65;;;2.80;;
8353;SDS011;4656;48.090;11.498;2023-09-18T10:03:28;6.03;;;2.42;;
8353;SDS011;4656;48.090;11.498;2023-09-18T10:05:32;6.78;;;2.55;;
8353;SDS011;4656;48.090;11.498;2023-09-18T10:07:36;7.90;;;2.80;;
8353;SDS011;4656;48.090;11.498;2023-09-18T10:09:39;7.47;;;2.40;;
8353;SDS011;4656;48.090;11.498;2023-09-18T10:11:43;5.17;;;2.60;;
8353;SDS011;4656;48.090;11.498;2023-09-18T10:13:47;5.27;;;2.40;;
8353;SDS011;4656;48.090;11.498;2023-09-18T10:15:51;8.88;;;2.72;;
8353;SDS011;4656;48.090;11.498;2023-09-18T10:17:56;8.52;;;2.45;;
8353;SDS011;4656;48.090;11.498;2023-09-18T10:20:01;5.45;;;2.50;;
8353;SDS011;4656;48.090;11.498;2023-09-18T10:22:17;5.13;;;2.50;;
8353;SDS011;4656;48.090;11.498;2023-09-18T10:24:24;8.18;;;3.08;;
8353;SDS011;4656;48.090;11.498;2023-09-18T10:26:26;8.68;;;2.63;;
8353;SDS011;4656;48.090;11.498;2023-09-18T10:28:29;10.90;;;2.80;;
8353;SDS011;4656;48.090;11.498;2023-09-18T10:30:31;8.20;;;3.20;;
8353;SDS011;4656;48.090;11.498;2023-09-18T10:32:34;9.48;;;2.65;;
8353;SDS011;4656;48.090;11.498;2023-09-18T10:34:37;8.02;;;2.95;;
8353;SDS011;4656;48.090;11.498;2023-09-18T10:36:40;11.10;;;2.95;;
8353;SDS011;4656;48.090;11.498;2023-09-18T10:38:43;11.13;;;3.17;;
8353;SDS011;4656;48.090;11.498;2023-09-18T10:40:50;6.47;;;2.40;;
8353;SDS011;4656;48.090;11.498;2023-09-18T10:42:53;13.03;;;3.10;;
8353;SDS011;4656;48.090;11.498;2023-09-18T10:44:56;8.68;;;2.45;;
8353;SDS011;4656;48.090;11.498;2023-09-18T10:46:58;10.30;;;3.20;;
8353;SDS011;4656;48.090;11.498;2023-09-18T10:49:01;7.75;;;2.88;;
8353;SDS011;4656;48.090;11.498;2023-09-18T10:51:04;9.88;;;3.08;;
8353;SDS011;4656;48.090;11.498;2023-09-18T10:53:06;9.20;;;2.60;;
8353;SDS011;4656;48.090;11.498;2023-09-18T10:55:10;11.98;;;2.90;;
8353;SDS011;4656;48.090;11.498;2023-09-18T10:57:14;11.70;;;3.00;;
8353;SDS011;4656;48.090;11.498;2023-09-18T10:59:16;7.68;;;2.63;;
8353;SDS011;4656;48.090;11.498;2023-09-18T11:01:18;9.65;;;2.65;;
8353;SDS011;4656;48.090;11.498;2023-09-18T11:03:22;9.13;;;2.93;;
8353;SDS011;4656;48.090;11.498;2023-09-18T11:05:32;9.85;;;2.90;;
8353;SDS011;4656;48.090;11.498;2023-09-18T11:07:33;7.60;;;2.90;;
8353;SDS011;4656;48.090;11.498;2023-09-18T11:09:42;11.68;;;3.95;;
8353;SDS011;4656;48.090;11.498;2023-09-18T11:11:45;9.02;;;2.78;;
8353;SDS011;4656;48.090;11.498;2023-09-18T11:13:51;7.88;;;3.00;;
8353;SDS011;4656;48.090;11.498;2023-09-18T11:15:58;9.50;;;3.10;;
8353;SDS011;4656;48.090;11.498;2023-09-18T11:18:01;6.55;;;3.28;;
8353;SDS011;4656;48.090;11.498;2023-09-18T11:20:04;7.53;;;3.40;;
8353;SDS011;4656;48.090;11.498;2023-09-18T11:22:09;10.90;;;3.67;;
8353;SDS011;4656;48.090;11.498;2023-09-18T11:24:16;10.50;;;3.65;;
8353;SDS011;4656;48.090;11.498;2023-09-18T11:26:19;9.07;;;3.53;;
8353;SDS011;4656;48.090;11.498;2023-09-18T11:28:22;8.15;;;2.95;;
8353;SDS011;4656;48.090;11.498;2023-09-18T11:30:25;6.55;;;2.78;;
8353;SDS011;4656;48.090;11.498;2023-09-18T11:34:48;5.80;;;2.45;;
8353;SDS011;4656;48.090;11.498;2023-09-18T11:37:19;9.97;;;2.67;;
8353;SDS011;4656;48.090;11.498;2023-09-18T11:39:33;5.47;;;2.30;;
8353;SDS011;4656;48.090;11.498;2023-09-18T11:41:37;5.32;;;1.88;;
8353;SDS011;4656;48.090;11.498;2023-09-18T11:43:39;7.05;;;2.00;;
8353;SDS011;4656;48.090;11.498;2023-09-18T11:45:42;4.22;;;2.00;;
8353;SDS011;4656;48.090;11.498;2023-09-18T11:47:47;6.80;;;2.00;;
8353;SDS011;4656;48.090;11.498;2023-09-18T11:49:56;5.33;;;2.10;;
8353;SDS011;4656;48.090;11.498;2023-09-18T11:51:59;4.47;;;1.60;;
8353;SDS011;4656;48.090;11.498;2023-09-18T11:54:00;3.85;;;1.60;;
8353;SDS011;4656;48.090;11.498;2023-09-18T11:56:03;6.68;;;1.80;;
8353;SDS011;4656;48.090;11.498;2023-09-18T11:58:05;3.90;;;1.95;;
8353;SDS011;4656;48.090;11.498;2023-09-18T12:00:17;5.65;;;1.90;;
8353;SDS011;4656;48.090;11.498;2023-09-18T12:02:27;6.18;;;1.92;;
8353;SDS011;4656;48.090;11.498;2023-09-18T12:04:35;3.60;;;1.70;;
8353;SDS011;4656;48.090;11.498;2023-09-18T12:06:39;4.07;;;1.90;;
8353;SDS011;4656;48.090;11.498;2023-09-18T12:08:42;4.60;;;1.67;;
8353;SDS011;4656;48.090;11.498;2023-09-18T12:10:44;6.38;;;1.90;;
8353;SDS011;4656;48.090;11.498;2023-09-18T12:12:48;5.70;;;1.92;;
8353;SDS011;4656;48.090;11.498;2023-09-18T12:14:51;4.05;;;1.65;;
8353;SDS011;4656;48.090;11.498;2023-09-18T12:16:53;2.50;;;1.58;;
8353;SDS011;4656;48.090;11.498;2023-09-18T12:18:57;3.47;;;1.70;;
8353;SDS011;4656;48.090;11.498;2023-09-18T12:20:59;5.30;;;2.15;;
8353;SDS011;4656;48.090;11.498;2023-09-18T12:23:00;2.83;;;1.70;;
8353;SDS011;4656;48.090;11.498;2023-09-18T12:25:09;6.93;;;1.80;;
8353;SDS011;4656;48.090;11.498;2023-09-18T12:27:11;2.40;;;1.60;;
8353;SDS011;4656;48.090;11.498;2023-09-18T12:29:13;5.45;;;2.20;;
8353;SDS011;4656;48.090;11.498;2023-09-18T12:31:15;3.55;;;1.60;;
8353;SDS011;4656;48.090;11.498;2023-09-18T12:33:17;2.65;;;1.50;;
8353;SDS011;4656;48.090;11.498;2023-09-18T12:35:21;3.00;;;1.67;;